sensor_id;sensor_type;location;lat;lon;timestamp;temperature;humidity
66576;SHT31;53428;47.686;16.584;2023-03-13T00:04:29;7.45;66.71
66576;SHT31;53428;47.686;16.584;2023-03-13T00:09:29;7.52;66.26
66576;SHT31;53428;47.686;16.584;2023-03-13T00:14:28;7.52;66.47
66576;SHT31;53428;47.686;16.584;2023-03-13T00:19:28;7.46;66.61
66576;SHT31;53428;47.686;16.584;2023-03-13T00:24:27;7.49;66.69
66576;SHT31;53428;47.686;16.584;2023-03-13T00:29:27;7.41;65.82
66576;SHT31;53428;47.686;16.584;2023-03-13T00:34:27;7.36;65.61
66576;SHT31;53428;47.686;16.584;2023-03-13T00:39:26;7.25;65.77
66576;SHT31;53428;47.686;16.584;2023-03-13T00:44:25;7.22;65.65
66576;SHT31;53428;47.686;16.584;2023-03-13T00:49:25;7.14;66.01
66576;SHT31;53428;47.686;16.584;2023-03-13T00:54:24;7.08;66.21
66576;SHT31;53428;47.686;16.584;2023-03-13T00:59:23;7.08;66.23
66576;SHT31;53428;47.686;16.584;2023-03-13T01:04:23;7.08;66.43
66576;SHT31;53428;47.686;16.584;2023-03-13T01:09:22;7.05;66.72
66576;SHT31;53428;47.686;16.584;2023-03-13T01:14:22;7.01;66.94
66576;SHT31;53428;47.686;16.584;2023-03-13T01:19:21;7.09;66.83
66576;SHT31;53428;47.686;16.584;2023-03-13T01:24:20;7.09;67.26
66576;SHT31;53428;47.686;16.584;2023-03-13T01:29:20;7.08;67.18
66576;SHT31;53428;47.686;16.584;2023-03-13T01:34:20;7.12;67.29
66576;SHT31;53428;47.686;16.584;2023-03-13T01:39:19;7.12;67.48
66576;SHT31;53428;47.686;16.584;2023-03-13T01:44:24;7.12;67.57
66576;SHT31;53428;47.686;16.584;2023-03-13T01:49:30;7.11;67.46
66576;SHT31;53428;47.686;16.584;2023-03-13T01:54:42;7.08;67.74
66576;SHT31;53428;47.686;16.584;2023-03-13T02:05:11;6.90;67.88
66576;SHT31;53428;47.686;16.584;2023-03-13T02:10:12;6.87;67.37
66576;SHT31;53428;47.686;16.584;2023-03-13T02:15:15;6.62;67.78
66576;SHT31;53428;47.686;16.584;2023-03-13T02:20:18;6.52;68.00
66576;SHT31;53428;47.686;16.584;2023-03-13T02:30:22;5.98;69.74
66576;SHT31;53428;47.686;16.584;2023-03-13T02:35:23;5.90;69.75
66576;SHT31;53428;47.686;16.584;2023-03-13T02:40:43;5.73;69.98
66576;SHT31;53428;47.686;16.584;2023-03-13T02:46:09;5.61;70.15
66576;SHT31;53428;47.686;16.584;2023-03-13T02:56:29;5.39;71.35
66576;SHT31;53428;47.686;16.584;2023-03-13T03:01:29;5.28;71.32
66576;SHT31;53428;47.686;16.584;2023-03-13T03:06:29;5.13;71.96
66576;SHT31;53428;47.686;16.584;2023-03-13T03:11:28;4.99;72.28
66576;SHT31;53428;47.686;16.584;2023-03-13T03:16:27;5.16;72.32
66576;SHT31;53428;47.686;16.584;2023-03-13T03:21:26;5.15;72.31
66576;SHT31;53428;47.686;16.584;2023-03-13T03:26:26;5.19;72.65
66576;SHT31;53428;47.686;16.584;2023-03-13T03:31:25;4.89;73.13
66576;SHT31;53428;47.686;16.584;2023-03-13T03:36:25;4.95;72.95
66576;SHT31;53428;47.686;16.584;2023-03-13T03:41:24;4.57;74.58
66576;SHT31;53428;47.686;16.584;2023-03-13T03:46:24;4.54;74.60
66576;SHT31;53428;47.686;16.584;2023-03-13T03:51:23;4.50;75.50
66576;SHT31;53428;47.686;16.584;2023-03-13T03:56:22;4.29;75.72
66576;SHT31;53428;47.686;16.584;2023-03-13T04:01:22;4.17;76.83
66576;SHT31;53428;47.686;16.584;2023-03-13T04:06:21;4.25;76.10
66576;SHT31;53428;47.686;16.584;2023-03-13T04:11:20;4.32;75.84
66576;SHT31;53428;47.686;16.584;2023-03-13T04:16:20;4.28;76.27
66576;SHT31;53428;47.686;16.584;2023-03-13T04:21:20;4.28;76.73
66576;SHT31;53428;47.686;16.584;2023-03-13T04:26:19;4.52;76.04
66576;SHT31;53428;47.686;16.584;2023-03-13T04:31:19;4.49;76.07
66576;SHT31;53428;47.686;16.584;2023-03-13T04:36:18;4.49;76.03
66576;SHT31;53428;47.686;16.584;2023-03-13T04:41:17;4.63;76.04
66576;SHT31;53428;47.686;16.584;2023-03-13T04:46:17;4.42;76.30
66576;SHT31;53428;47.686;16.584;2023-03-13T04:51:16;4.33;76.89
66576;SHT31;53428;47.686;16.584;2023-03-13T04:56:26;4.36;76.96
66576;SHT31;53428;47.686;16.584;2023-03-13T05:01:25;4.53;76.78
66576;SHT31;53428;47.686;16.584;2023-03-13T05:06:24;4.50;76.98
66576;SHT31;53428;47.686;16.584;2023-03-13T05:11:24;4.54;76.96
66576;SHT31;53428;47.686;16.584;2023-03-13T05:16:23;4.58;76.94
66576;SHT31;53428;47.686;16.584;2023-03-13T05:21:22;4.68;77.02
66576;SHT31;53428;47.686;16.584;2023-03-13T05:26:21;4.67;77.19
66576;SHT31;53428;47.686;16.584;2023-03-13T05:31:21;4.81;76.52
66576;SHT31;53428;47.686;16.584;2023-03-13T05:36:20;4.87;76.45
66576;SHT31;53428;47.686;16.584;2023-03-13T05:41:19;4.99;76.37
66576;SHT31;53428;47.686;16.584;2023-03-13T05:46:19;5.05;75.74
66576;SHT31;53428;47.686;16.584;2023-03-13T05:51:18;5.07;75.54
66576;SHT31;53428;47.686;16.584;2023-03-13T05:56:18;5.07;75.69
66576;SHT31;53428;47.686;16.584;2023-03-13T06:01:17;5.35;74.82
66576;SHT31;53428;47.686;16.584;2023-03-13T06:06:16;5.63;73.93
66576;SHT31;53428;47.686;16.584;2023-03-13T06:11:16;5.84;73.21
66576;SHT31;53428;47.686;16.584;2023-03-13T06:16:15;6.33;71.65
66576;SHT31;53428;47.686;16.584;2023-03-13T06:21:14;6.69;71.02
66576;SHT31;53428;47.686;16.584;2023-03-13T06:26:14;7.07;69.92
66576;SHT31;53428;47.686;16.584;2023-03-13T06:31:13;7.41;68.84
66576;SHT31;53428;47.686;16.584;2023-03-13T06:36:12;7.69;67.36
66576;SHT31;53428;47.686;16.584;2023-03-13T06:41:12;7.76;67.16
66576;SHT31;53428;47.686;16.584;2023-03-13T06:46:19;7.94;66.40
66576;SHT31;53428;47.686;16.584;2023-03-13T06:51:21;8.39;64.10
66576;SHT31;53428;47.686;16.584;2023-03-13T06:56:20;8.66;62.61
66576;SHT31;53428;47.686;16.584;2023-03-13T07:01:19;8.83;61.99
66576;SHT31;53428;47.686;16.584;2023-03-13T07:06:19;9.08;61.51
66576;SHT31;53428;47.686;16.584;2023-03-13T07:11:18;9.28;61.03
66576;SHT31;53428;47.686;16.584;2023-03-13T07:16:17;9.00;61.76
66576;SHT31;53428;47.686;16.584;2023-03-13T07:21:16;9.10;61.47
66576;SHT31;53428;47.686;16.584;2023-03-13T07:26:16;9.39;60.81
66576;SHT31;53428;47.686;16.584;2023-03-13T07:31:20;10.02;59.52
66576;SHT31;53428;47.686;16.584;2023-03-13T07:36:19;10.71;58.41
66576;SHT31;53428;47.686;16.584;2023-03-13T07:41:19;11.51;56.49
66576;SHT31;53428;47.686;16.584;2023-03-13T07:46:18;11.84;55.41
66576;SHT31;53428;47.686;16.584;2023-03-13T07:51:23;11.92;55.40
66576;SHT31;53428;47.686;16.584;2023-03-13T07:56:23;12.19;53.32
66576;SHT31;53428;47.686;16.584;2023-03-13T08:01:25;12.37;52.30
66576;SHT31;53428;47.686;16.584;2023-03-13T08:06:25;12.08;53.90
66576;SHT31;53428;47.686;16.584;2023-03-13T08:11:26;12.64;51.80
66576;SHT31;53428;47.686;16.584;2023-03-13T08:16:28;13.07;51.34
66576;SHT31;53428;47.686;16.584;2023-03-13T08:21:30;13.46;50.84
66576;SHT31;53428;47.686;16.584;2023-03-13T08:26:30;13.81;48.69
66576;SHT31;53428;47.686;16.584;2023-03-13T08:31:32;13.70;48.86
66576;SHT31;53428;47.686;16.584;2023-03-13T08:36:34;13.66;48.61
66576;SHT31;53428;47.686;16.584;2023-03-13T08:41:35;13.71;48.43
66576;SHT31;53428;47.686;16.584;2023-03-13T08:46:35;14.07;47.61
66576;SHT31;53428;47.686;16.584;2023-03-13T08:51:34;14.15;47.55
66576;SHT31;53428;47.686;16.584;2023-03-13T08:56:34;13.86;47.92
66576;SHT31;53428;47.686;16.584;2023-03-13T09:01:34;13.84;48.07
66576;SHT31;53428;47.686;16.584;2023-03-13T09:06:36;14.27;47.09
66576;SHT31;53428;47.686;16.584;2023-03-13T09:11:36;14.54;46.27
66576;SHT31;53428;47.686;16.584;2023-03-13T09:16:37;14.59;46.30
66576;SHT31;53428;47.686;16.584;2023-03-13T09:21:36;14.84;46.34
66576;SHT31;53428;47.686;16.584;2023-03-13T09:26:35;14.72;46.57
66576;SHT31;53428;47.686;16.584;2023-03-13T09:31:34;14.55;46.90
66576;SHT31;53428;47.686;16.584;2023-03-13T09:36:36;14.20;47.82
66576;SHT31;53428;47.686;16.584;2023-03-13T09:41:39;13.84;48.82
66576;SHT31;53428;47.686;16.584;2023-03-13T09:52:14;13.69;49.74
66576;SHT31;53428;47.686;16.584;2023-03-13T09:57:23;13.81;48.43
66576;SHT31;53428;47.686;16.584;2023-03-13T10:02:33;13.53;48.92
66576;SHT31;53428;47.686;16.584;2023-03-13T10:07:32;13.50;49.35
66576;SHT31;53428;47.686;16.584;2023-03-13T10:12:44;13.55;48.67
66576;SHT31;53428;47.686;16.584;2023-03-13T10:17:44;14.04;48.00
66576;SHT31;53428;47.686;16.584;2023-03-13T10:22:45;13.91;48.32
66576;SHT31;53428;47.686;16.584;2023-03-13T10:27:50;14.08;47.63
66576;SHT31;53428;47.686;16.584;2023-03-13T10:32:50;13.77;47.74
66576;SHT31;53428;47.686;16.584;2023-03-13T10:38:00;13.74;48.26
66576;SHT31;53428;47.686;16.584;2023-03-13T10:43:06;14.54;47.42
66576;SHT31;53428;47.686;16.584;2023-03-13T10:48:18;14.77;47.01
66576;SHT31;53428;47.686;16.584;2023-03-13T10:58:48;13.81;48.80
66576;SHT31;53428;47.686;16.584;2023-03-13T11:03:49;14.29;47.77
66576;SHT31;53428;47.686;16.584;2023-03-13T11:08:49;14.36;48.04
66576;SHT31;53428;47.686;16.584;2023-03-13T11:13:48;14.13;48.32
66576;SHT31;53428;47.686;16.584;2023-03-13T11:24:31;14.73;46.89
66576;SHT31;53428;47.686;16.584;2023-03-13T11:34:39;15.83;45.28
66576;SHT31;53428;47.686;16.584;2023-03-13T11:45:49;16.91;43.49
66576;SHT31;53428;47.686;16.584;2023-03-13T11:56:20;16.44;44.41
66576;SHT31;53428;47.686;16.584;2023-03-13T12:01:24;16.60;44.19
66576;SHT31;53428;47.686;16.584;2023-03-13T12:06:43;16.26;44.96
66576;SHT31;53428;47.686;16.584;2023-03-13T12:16:57;16.72;44.13
66576;SHT31;53428;47.686;16.584;2023-03-13T12:22:06;17.44;42.66
66576;SHT31;53428;47.686;16.584;2023-03-13T12:27:10;16.92;43.91
66576;SHT31;53428;47.686;16.584;2023-03-13T12:37:57;16.61;44.83
66576;SHT31;53428;47.686;16.584;2023-03-13T12:43:11;16.85;44.18
66576;SHT31;53428;47.686;16.584;2023-03-13T12:48:36;16.20;45.13
66576;SHT31;53428;47.686;16.584;2023-03-13T12:59:07;16.00;45.87
66576;SHT31;53428;47.686;16.584;2023-03-13T13:04:16;15.62;46.76
66576;SHT31;53428;47.686;16.584;2023-03-13T13:09:36;16.37;45.73
66576;SHT31;53428;47.686;16.584;2023-03-13T13:19:46;15.47;47.55
66576;SHT31;53428;47.686;16.584;2023-03-13T13:24:50;15.31;48.00
66576;SHT31;53428;47.686;16.584;2023-03-13T13:29:54;15.41;47.70
66576;SHT31;53428;47.686;16.584;2023-03-13T13:34:55;16.10;46.29
66576;SHT31;53428;47.686;16.584;2023-03-13T13:45:25;15.30;47.19
66576;SHT31;53428;47.686;16.584;2023-03-13T13:50:26;15.58;47.08
66576;SHT31;53428;47.686;16.584;2023-03-13T14:00:45;16.76;45.50
66576;SHT31;53428;47.686;16.584;2023-03-13T14:05:52;16.60;45.99
66576;SHT31;53428;47.686;16.584;2023-03-13T14:11:15;16.21;46.84
66576;SHT31;53428;47.686;16.584;2023-03-13T14:16:24;16.17;46.71
66576;SHT31;53428;47.686;16.584;2023-03-13T14:21:25;16.03;47.62
66576;SHT31;53428;47.686;16.584;2023-03-13T14:26:28;16.12;47.07
66576;SHT31;53428;47.686;16.584;2023-03-13T14:31:29;15.88;46.93
66576;SHT31;53428;47.686;16.584;2023-03-13T14:36:29;15.78;46.91
66576;SHT31;53428;47.686;16.584;2023-03-13T14:41:32;15.69;47.12
66576;SHT31;53428;47.686;16.584;2023-03-13T14:46:35;15.65;47.43
66576;SHT31;53428;47.686;16.584;2023-03-13T14:51:38;15.75;47.55
66576;SHT31;53428;47.686;16.584;2023-03-13T14:56:39;15.61;47.73
66576;SHT31;53428;47.686;16.584;2023-03-13T15:01:41;15.55;47.85
66576;SHT31;53428;47.686;16.584;2023-03-13T15:06:40;15.66;47.82
66576;SHT31;53428;47.686;16.584;2023-03-13T15:11:55;15.45;47.76
66576;SHT31;53428;47.686;16.584;2023-03-13T15:16:55;15.65;47.43
66576;SHT31;53428;47.686;16.584;2023-03-13T15:21:54;15.69;47.72
66576;SHT31;53428;47.686;16.584;2023-03-13T15:26:54;15.59;47.92
66576;SHT31;53428;47.686;16.584;2023-03-13T15:31:53;15.55;47.98
66576;SHT31;53428;47.686;16.584;2023-03-13T15:36:52;15.45;48.29
66576;SHT31;53428;47.686;16.584;2023-03-13T15:41:52;15.47;48.58
66576;SHT31;53428;47.686;16.584;2023-03-13T15:46:51;15.40;48.87
66576;SHT31;53428;47.686;16.584;2023-03-13T15:51:51;15.37;48.85
66576;SHT31;53428;47.686;16.584;2023-03-13T15:56:51;15.40;48.99
66576;SHT31;53428;47.686;16.584;2023-03-13T16:01:50;15.38;48.98
66576;SHT31;53428;47.686;16.584;2023-03-13T16:06:50;15.23;49.14
66576;SHT31;53428;47.686;16.584;2023-03-13T16:11:49;15.32;48.94
66576;SHT31;53428;47.686;16.584;2023-03-13T16:16:48;15.24;49.27
66576;SHT31;53428;47.686;16.584;2023-03-13T16:21:50;15.13;49.46
66576;SHT31;53428;47.686;16.584;2023-03-13T16:26:50;15.02;49.62
66576;SHT31;53428;47.686;16.584;2023-03-13T16:31:50;14.90;50.07
66576;SHT31;53428;47.686;16.584;2023-03-13T16:36:49;14.72;50.42
66576;SHT31;53428;47.686;16.584;2023-03-13T16:41:52;14.56;50.75
66576;SHT31;53428;47.686;16.584;2023-03-13T16:46:51;14.52;50.85
66576;SHT31;53428;47.686;16.584;2023-03-13T16:51:51;14.44;51.19
66576;SHT31;53428;47.686;16.584;2023-03-13T16:56:50;14.29;51.64
66576;SHT31;53428;47.686;16.584;2023-03-13T17:01:51;14.29;51.82
66576;SHT31;53428;47.686;16.584;2023-03-13T17:06:50;14.18;52.09
66576;SHT31;53428;47.686;16.584;2023-03-13T17:11:50;14.18;52.08
66576;SHT31;53428;47.686;16.584;2023-03-13T17:16:50;14.18;52.28
66576;SHT31;53428;47.686;16.584;2023-03-13T17:21:49;14.03;52.78
66576;SHT31;53428;47.686;16.584;2023-03-13T17:26:48;13.97;52.98
66576;SHT31;53428;47.686;16.584;2023-03-13T17:31:48;13.69;53.82
66576;SHT31;53428;47.686;16.584;2023-03-13T17:36:48;13.46;54.37
66576;SHT31;53428;47.686;16.584;2023-03-13T17:41:47;13.34;54.75
66576;SHT31;53428;47.686;16.584;2023-03-13T17:46:47;13.26;55.12
66576;SHT31;53428;47.686;16.584;2023-03-13T17:51:46;13.12;55.54
66576;SHT31;53428;47.686;16.584;2023-03-13T17:56:47;12.90;56.17
66576;SHT31;53428;47.686;16.584;2023-03-13T18:01:47;12.71;56.73
66576;SHT31;53428;47.686;16.584;2023-03-13T18:06:47;12.63;57.12
66576;SHT31;53428;47.686;16.584;2023-03-13T18:11:48;12.64;57.05
66576;SHT31;53428;47.686;16.584;2023-03-13T18:16:48;12.73;57.09
66576;SHT31;53428;47.686;16.584;2023-03-13T18:21:53;12.43;57.67
66576;SHT31;53428;47.686;16.584;2023-03-13T18:26:54;12.43;57.79
66576;SHT31;53428;47.686;16.584;2023-03-13T18:31:56;12.64;57.27
66576;SHT31;53428;47.686;16.584;2023-03-13T18:36:57;12.76;56.76
66576;SHT31;53428;47.686;16.584;2023-03-13T18:42:01;12.88;56.48
66576;SHT31;53428;47.686;16.584;2023-03-13T18:47:13;13.04;55.94
66576;SHT31;53428;47.686;16.584;2023-03-13T18:52:14;13.14;55.82
66576;SHT31;53428;47.686;16.584;2023-03-13T18:57:17;13.45;55.19
66576;SHT31;53428;47.686;16.584;2023-03-13T19:02:24;13.28;55.90
66576;SHT31;53428;47.686;16.584;2023-03-13T19:07:25;13.22;55.80
66576;SHT31;53428;47.686;16.584;2023-03-13T19:12:26;13.07;56.43
66576;SHT31;53428;47.686;16.584;2023-03-13T19:17:27;12.92;56.71
66576;SHT31;53428;47.686;16.584;2023-03-13T19:22:27;12.68;57.57
66576;SHT31;53428;47.686;16.584;2023-03-13T19:27:27;12.44;58.39
66576;SHT31;53428;47.686;16.584;2023-03-13T19:32:28;12.49;58.49
66576;SHT31;53428;47.686;16.584;2023-03-13T19:37:28;12.60;58.15
66576;SHT31;53428;47.686;16.584;2023-03-13T19:42:28;12.33;58.72
66576;SHT31;53428;47.686;16.584;2023-03-13T19:47:28;12.74;57.91
66576;SHT31;53428;47.686;16.584;2023-03-13T19:52:28;12.80;57.67
66576;SHT31;53428;47.686;16.584;2023-03-13T19:57:27;12.95;57.33
66576;SHT31;53428;47.686;16.584;2023-03-13T20:02:27;12.77;57.91
66576;SHT31;53428;47.686;16.584;2023-03-13T20:07:27;12.71;57.98
66576;SHT31;53428;47.686;16.584;2023-03-13T20:12:26;12.71;57.81
66576;SHT31;53428;47.686;16.584;2023-03-13T20:17:26;12.76;58.00
66576;SHT31;53428;47.686;16.584;2023-03-13T20:22:26;12.65;58.21
66576;SHT31;53428;47.686;16.584;2023-03-13T20:27:26;12.33;59.12
66576;SHT31;53428;47.686;16.584;2023-03-13T20:32:26;11.98;60.27
66576;SHT31;53428;47.686;16.584;2023-03-13T20:37:26;11.47;62.04
66576;SHT31;53428;47.686;16.584;2023-03-13T20:42:26;11.12;62.99
66576;SHT31;53428;47.686;16.584;2023-03-13T20:47:26;10.92;63.63
66576;SHT31;53428;47.686;16.584;2023-03-13T20:52:26;10.82;63.95
66576;SHT31;53428;47.686;16.584;2023-03-13T20:57:25;10.64;64.35
66576;SHT31;53428;47.686;16.584;2023-03-13T21:02:25;10.58;64.43
66576;SHT31;53428;47.686;16.584;2023-03-13T21:07:25;11.10;63.08
66576;SHT31;53428;47.686;16.584;2023-03-13T21:12:25;11.95;60.98
66576;SHT31;53428;47.686;16.584;2023-03-13T21:17:24;11.87;61.13
66576;SHT31;53428;47.686;16.584;2023-03-13T21:22:24;11.29;62.37
66576;SHT31;53428;47.686;16.584;2023-03-13T21:27:26;10.82;63.96
66576;SHT31;53428;47.686;16.584;2023-03-13T21:32:26;10.55;65.17
66576;SHT31;53428;47.686;16.584;2023-03-13T21:37:25;10.25;66.29
66576;SHT31;53428;47.686;16.584;2023-03-13T21:42:25;10.03;67.10
66576;SHT31;53428;47.686;16.584;2023-03-13T21:47:24;9.82;68.14
66576;SHT31;53428;47.686;16.584;2023-03-13T21:52:23;9.72;68.50
66576;SHT31;53428;47.686;16.584;2023-03-13T21:57:23;9.61;69.07
66576;SHT31;53428;47.686;16.584;2023-03-13T22:02:22;9.47;69.34
66576;SHT31;53428;47.686;16.584;2023-03-13T22:07:21;9.45;69.73
66576;SHT31;53428;47.686;16.584;2023-03-13T22:12:21;9.37;70.24
66576;SHT31;53428;47.686;16.584;2023-03-13T22:17:23;9.30;70.85
66576;SHT31;53428;47.686;16.584;2023-03-13T22:22:22;9.38;70.72
66576;SHT31;53428;47.686;16.584;2023-03-13T22:27:22;10.21;68.49
66576;SHT31;53428;47.686;16.584;2023-03-13T22:32:22;10.71;66.60
66576;SHT31;53428;47.686;16.584;2023-03-13T22:37:22;10.75;66.38
66576;SHT31;53428;47.686;16.584;2023-03-13T22:42:24;10.47;66.96
66576;SHT31;53428;47.686;16.584;2023-03-13T22:47:25;10.16;68.15
66576;SHT31;53428;47.686;16.584;2023-03-13T22:52:24;9.99;69.24
66576;SHT31;53428;47.686;16.584;2023-03-13T22:57:28;9.96;69.56
66576;SHT31;53428;47.686;16.584;2023-03-13T23:02:29;10.07;69.32
66576;SHT31;53428;47.686;16.584;2023-03-13T23:07:29;10.43;68.83
66576;SHT31;53428;47.686;16.584;2023-03-13T23:12:29;11.03;66.74
66576;SHT31;53428;47.686;16.584;2023-03-13T23:17:30;11.43;65.45
66576;SHT31;53428;47.686;16.584;2023-03-13T23:22:30;11.15;66.44
66576;SHT31;53428;47.686;16.584;2023-03-13T23:27:31;10.88;67.53
66576;SHT31;53428;47.686;16.584;2023-03-13T23:32:35;10.57;68.52
66576;SHT31;53428;47.686;16.584;2023-03-13T23:37:35;10.36;69.56
66576;SHT31;53428;47.686;16.584;2023-03-13T23:42:35;10.27;69.65
66576;SHT31;53428;47.686;16.584;2023-03-13T23:47:34;10.37;69.24
66576;SHT31;53428;47.686;16.584;2023-03-13T23:52:34;11.10;66.34
66576;SHT31;53428;47.686;16.584;2023-03-13T23:57:34;12.47;61.85
